Time;durP1;ratioP1;P1;durP2;ratioP2;P2;SDS_P1;SDS_P2;PMS_P1;PMS_P2;Temp;Humidity;BMP_temperature;BMP_pressure;BME280_temperature;BME280_humidity;BME280_pressure;Samples;Min_cycle;Max_cycle;Signal;HPM_P1;HPM_P2
2021/03/12 00:01:41;;;;;;;1.90;0.50;;;5.60;99.90;;;;;;4166720;28;20565;-56
2021/03/12 00:03:42;;;;;;;5.73;0.80;;;5.60;99.90;;;;;;4166219;28;20477;-58
2021/03/12 00:05:45;;;;;;;1.97;0.70;;;5.50;99.90;;;;;;4166764;28;20801;-56
2021/03/12 00:07:47;;;;;;;1.30;0.50;;;5.50;99.90;;;;;;4165679;28;20470;-57
2021/03/12 00:09:48;;;;;;;4.33;0.70;;;5.40;99.90;;;;;;4166660;28;20758;-58
2021/03/12 00:11:50;;;;;;;4.37;0.70;;;5.40;99.90;;;;;;4167617;28;20469;-58
2021/03/12 00:13:52;;;;;;;6.97;0.80;;;5.30;99.90;;;;;;4166679;28;20480;-57
2021/03/12 00:15:54;;;;;;;3.27;0.60;;;5.30;99.90;;;;;;4166105;28;20471;-56
2021/03/12 00:17:56;;;;;;;2.70;0.50;;;5.30;99.90;;;;;;4167283;28;20528;-58
2021/03/12 00:19:56;;;;;;;0.93;0.40;;;5.20;99.90;;;;;;4166489;28;20485;-58
2021/03/12 00:21:58;;;;;;;3.30;0.60;;;5.20;99.90;;;;;;4166063;28;20560;-58
2021/03/12 00:23:59;;;;;;;1.40;0.80;;;5.10;99.90;;;;;;4166199;28;20713;-58
2021/03/12 00:26:01;;;;;;;0.40;0.30;;;5.10;99.90;;;;;;4166450;28;20577;-58
2021/03/12 00:28:03;;;;;;;2.73;0.50;;;5.00;99.90;;;;;;4166068;28;20477;-57
2021/03/12 00:30:08;;;;;;;0.67;0.50;;;4.90;99.90;;;;;;4167654;28;21012;-58
2021/03/12 00:32:09;;;;;;;3.07;0.60;;;4.90;99.90;;;;;;4166229;28;21475;-58
2021/03/12 00:34:11;;;;;;;3.53;0.60;;;4.80;99.90;;;;;;4167124;28;20475;-58
2021/03/12 00:36:13;;;;;;;1.80;0.43;;;4.80;99.90;;;;;;4169201;28;20519;-58
2021/03/12 00:38:15;;;;;;;1.80;0.50;;;4.80;99.90;;;;;;4167821;28;20477;-57
2021/03/12 00:40:19;;;;;;;3.40;0.50;;;4.70;99.90;;;;;;4170372;28;20493;-57
2021/03/12 00:42:20;;;;;;;1.20;0.50;;;4.70;99.90;;;;;;4169853;28;20802;-58
2021/03/12 00:44:23;;;;;;;2.23;0.50;;;4.60;99.90;;;;;;4169396;28;20480;-58
2021/03/12 00:46:26;;;;;;;2.67;0.53;;;4.50;99.90;;;;;;4170996;28;21597;-58
2021/03/12 00:48:27;;;;;;;5.13;0.60;;;4.40;99.90;;;;;;4170239;28;20468;-58
2021/03/12 00:50:32;;;;;;;2.43;0.70;;;4.30;99.90;;;;;;4169049;28;20465;-59
2021/03/12 00:52:33;;;;;;;3.70;0.80;;;4.30;99.90;;;;;;4169684;28;20475;-59
2021/03/12 00:54:35;;;;;;;3.83;0.70;;;4.30;99.90;;;;;;4169624;28;20571;-59
2021/03/12 00:56:36;;;;;;;2.67;0.50;;;4.30;99.90;;;;;;4169960;28;20481;-59
2021/03/12 00:58:38;;;;;;;2.23;0.67;;;4.30;99.90;;;;;;4170269;28;20475;-58
2021/03/12 01:00:39;;;;;;;3.40;0.60;;;4.40;99.90;;;;;;4167275;28;20497;-58
2021/03/12 01:02:42;;;;;;;4.43;0.70;;;4.40;99.90;;;;;;4169035;28;20483;-57
2021/03/12 01:04:43;;;;;;;5.37;0.60;;;4.40;99.90;;;;;;4170004;28;20465;-57
2021/03/12 01:06:44;;;;;;;2.73;0.50;;;4.50;99.90;;;;;;4167476;28;20489;-57
2021/03/12 01:08:46;;;;;;;1.83;0.70;;;4.50;99.90;;;;;;4169293;28;20480;-58
2021/03/12 01:10:48;;;;;;;2.43;0.50;;;4.60;99.90;;;;;;4170065;28;20497;-57
2021/03/12 01:12:50;;;;;;;3.10;0.70;;;4.60;99.90;;;;;;4168469;28;20562;-57
2021/03/12 01:14:51;;;;;;;1.20;0.50;;;4.60;99.90;;;;;;4169183;28;20476;-57
2021/03/12 01:16:52;;;;;;;2.03;0.60;;;4.70;99.90;;;;;;4169125;28;20487;-57
2021/03/12 01:18:55;;;;;;;3.77;0.70;;;4.70;99.90;;;;;;4170170;28;20479;-57
2021/03/12 01:20:56;;;;;;;1.83;0.70;;;4.80;99.90;;;;;;4168950;28;20528;-56
2021/03/12 01:22:59;;;;;;;5.70;0.70;;;4.80;99.90;;;;;;4168891;28;20846;-56
2021/03/12 01:25:01;;;;;;;1.67;0.60;;;4.80;99.90;;;;;;4169767;28;21075;-57
2021/03/12 01:27:04;;;;;;;3.67;1.00;;;4.90;99.90;;;;;;4168700;28;20466;-57
2021/03/12 01:29:06;;;;;;;3.57;0.80;;;4.90;99.90;;;;;;4169267;28;20477;-58
2021/03/12 01:31:07;;;;;;;3.17;0.60;;;5.00;99.90;;;;;;4169675;28;20477;-57
2021/03/12 01:33:09;;;;;;;3.03;0.60;;;5.00;99.90;;;;;;4167600;28;20551;-58
2021/03/12 01:35:12;;;;;;;1.27;0.60;;;5.00;99.90;;;;;;4168996;28;20465;-58
2021/03/12 01:37:14;;;;;;;1.77;0.50;;;5.00;99.90;;;;;;4169355;28;20472;-58
2021/03/12 01:39:15;;;;;;;2.47;0.80;;;5.00;99.90;;;;;;4168255;28;20501;-57
2021/03/12 01:41:17;;;;;;;0.70;0.50;;;5.00;99.90;;;;;;4168592;28;20479;-58
2021/03/12 01:43:19;;;;;;;3.67;0.50;;;5.00;99.90;;;;;;4168295;28;20799;-58
2021/03/12 01:45:22;;;;;;;3.20;0.53;;;5.00;99.90;;;;;;4169070;28;20472;-58
2021/03/12 01:47:23;;;;;;;2.27;0.50;;;4.80;99.90;;;;;;4169111;28;21077;-58
2021/03/12 01:49:25;;;;;;;1.83;0.50;;;4.70;99.90;;;;;;4167858;28;20472;-58
2021/03/12 01:51:27;;;;;;;1.67;0.70;;;4.60;99.90;;;;;;4168366;28;20470;-58
2021/03/12 01:53:28;;;;;;;3.27;0.90;;;4.50;99.90;;;;;;4169017;28;20472;-58
2021/03/12 01:55:32;;;;;;;4.00;0.60;;;4.40;99.90;;;;;;4168610;28;20472;-58
2021/03/12 01:57:34;;;;;;;3.00;0.70;;;4.40;99.90;;;;;;4169154;28;20479;-58
2021/03/12 01:59:36;;;;;;;3.57;0.90;;;4.30;99.90;;;;;;4168938;28;20496;-58
2021/03/12 02:01:38;;;;;;;5.43;0.83;;;4.40;99.90;;;;;;4168649;28;20492;-58
2021/03/12 02:03:39;;;;;;;3.30;0.50;;;4.40;99.90;;;;;;4167777;28;20460;-58
2021/03/12 02:05:41;;;;;;;4.50;1.20;;;4.40;99.90;;;;;;4168163;28;20913;-58
2021/03/12 02:07:44;;;;;;;2.97;0.73;;;4.40;99.90;;;;;;4166913;28;20477;-57
2021/03/12 02:09:45;;;;;;;4.43;0.90;;;4.40;99.90;;;;;;4166536;28;20464;-58
2021/03/12 02:11:55;;;;;;;4.57;0.70;;;4.40;99.90;;;;;;4168601;28;21361;-58
2021/03/12 02:14:02;;;;;;;1.57;0.63;;;4.50;99.90;;;;;;4167820;28;20472;-58
2021/03/12 02:16:12;;;;;;;2.30;0.60;;;4.50;99.90;;;;;;4169404;28;20924;-58
2021/03/12 02:18:19;;;;;;;5.10;0.70;;;4.50;99.90;;;;;;4168300;28;20479;-59
2021/03/12 02:20:34;;;;;;;2.57;0.80;;;4.50;99.90;;;;;;4168022;28;20567;-58
2021/03/12 02:22:40;;;;;;;3.80;0.80;;;4.50;99.90;;;;;;4168476;28;20480;-59
2021/03/12 02:24:49;;;;;;;2.90;0.80;;;4.40;99.90;;;;;;4167670;28;20958;-58
2021/03/12 02:27:06;;;;;;;3.03;0.70;;;4.40;99.90;;;;;;4168057;28;20526;-59
2021/03/12 02:29:09;;;;;;;4.80;0.70;;;4.50;99.90;;;;;;4168077;28;20483;-60
2021/03/12 02:31:11;;;;;;;3.97;0.70;;;4.50;99.90;;;;;;4168684;28;20542;-59
2021/03/12 02:33:13;;;;;;;6.63;0.67;;;4.60;99.90;;;;;;4168858;28;20467;-62
2021/03/12 02:35:17;;;;;;;2.30;0.70;;;4.60;99.90;;;;;;4166246;28;20473;-59
2021/03/12 02:37:21;;;;;;;1.63;0.60;;;4.60;99.90;;;;;;4169365;28;20477;-59
2021/03/12 02:39:25;;;;;;;2.63;0.80;;;4.60;99.90;;;;;;4166441;28;22494;-58
2021/03/12 02:41:28;;;;;;;3.57;0.90;;;4.70;99.90;;;;;;4169043;28;20543;-61
2021/03/12 02:43:32;;;;;;;3.47;0.90;;;4.70;99.90;;;;;;4168102;28;20482;-58
2021/03/12 02:45:33;;;;;;;3.70;0.80;;;4.80;99.90;;;;;;4167215;28;20472;-61
2021/03/12 02:47:36;;;;;;;4.77;1.00;;;4.80;99.90;;;;;;4168340;28;20477;-64
2021/03/12 02:49:38;;;;;;;3.80;0.60;;;4.80;99.90;;;;;;4167951;28;20480;-61
2021/03/12 02:51:40;;;;;;;2.40;0.73;;;4.80;99.90;;;;;;4168824;28;20530;-59
2021/03/12 02:53:41;;;;;;;1.93;0.73;;;4.80;99.90;;;;;;4166786;28;20485;-59
2021/03/12 02:55:43;;;;;;;3.73;0.77;;;4.90;99.90;;;;;;4167721;28;20468;-58
2021/03/12 02:57:45;;;;;;;6.90;1.00;;;4.90;99.90;;;;;;4167322;28;20486;-58
2021/03/12 02:59:49;;;;;;;4.43;1.00;;;4.90;99.90;;;;;;4167387;28;20489;-58
2021/03/12 03:01:53;;;;;;;8.37;1.20;;;4.90;99.90;;;;;;4167408;28;20482;-58
2021/03/12 03:03:55;;;;;;;1.30;0.60;;;5.00;99.90;;;;;;4168448;28;20476;-58
2021/03/12 03:05:57;;;;;;;3.57;0.80;;;5.00;99.90;;;;;;4167169;28;20474;-58
2021/03/12 03:07:59;;;;;;;4.17;0.87;;;4.90;99.90;;;;;;4167573;28;20485;-58
2021/03/12 03:10:00;;;;;;;6.60;0.80;;;4.90;99.90;;;;;;4167503;28;20477;-58
2021/03/12 03:12:03;;;;;;;6.13;1.03;;;4.80;99.90;;;;;;4166680;28;20473;-59
2021/03/12 03:14:05;;;;;;;2.10;0.70;;;4.70;99.90;;;;;;4166381;28;20479;-59
2021/03/12 03:16:12;;;;;;;6.43;0.80;;;4.60;99.90;;;;;;4166665;28;20465;-58
2021/03/12 03:18:13;;;;;;;5.03;1.20;;;4.60;99.90;;;;;;4167610;28;20470;-58
2021/03/12 03:20:16;;;;;;;3.67;0.90;;;4.50;99.90;;;;;;4166782;28;20501;-58
2021/03/12 03:22:19;;;;;;;4.47;1.00;;;4.40;99.90;;;;;;4167868;28;20482;-58
2021/03/12 03:24:20;;;;;;;5.07;1.00;;;4.40;99.90;;;;;;4166818;28;20477;-58
2021/03/12 03:26:21;;;;;;;7.67;1.00;;;4.40;99.90;;;;;;4167148;28;20501;-58
2021/03/12 03:28:23;;;;;;;5.43;1.00;;;4.30;99.90;;;;;;4166104;28;20477;-58
2021/03/12 03:30:25;;;;;;;3.40;0.70;;;4.30;99.90;;;;;;4165931;28;20462;-58
2021/03/12 03:32:27;;;;;;;4.07;0.70;;;4.20;99.90;;;;;;4166677;28;20471;-58
2021/03/12 03:34:29;;;;;;;2.53;0.70;;;4.20;99.90;;;;;;4167180;28;20469;-58
2021/03/12 03:36:30;;;;;;;4.70;0.90;;;4.10;99.90;;;;;;4168049;28;20483;-58
2021/03/12 03:38:32;;;;;;;4.00;1.03;;;4.10;99.90;;;;;;4167361;28;20482;-58
2021/03/12 03:40:33;;;;;;;4.67;1.03;;;4.10;99.90;;;;;;4166350;28;20496;-58
2021/03/12 03:42:36;;;;;;;5.27;1.40;;;4.10;99.90;;;;;;4166934;28;20497;-58
2021/03/12 03:44:39;;;;;;;3.47;0.83;;;4.00;99.90;;;;;;4167402;28;20477;-58
2021/03/12 03:46:43;;;;;;;4.03;1.03;;;4.00;99.90;;;;;;4167103;28;20904;-58
2021/03/12 03:48:46;;;;;;;6.90;1.00;;;4.00;99.90;;;;;;4165714;28;20472;-59
2021/03/12 03:50:48;;;;;;;6.13;1.00;;;3.90;99.90;;;;;;4166987;28;20477;-58
2021/03/12 03:52:50;;;;;;;8.10;1.00;;;3.80;99.90;;;;;;4166617;28;20482;-58
2021/03/12 03:54:53;;;;;;;8.17;1.20;;;3.80;99.90;;;;;;4166192;28;20490;-59
2021/03/12 03:56:55;;;;;;;2.97;1.13;;;3.70;99.90;;;;;;4166107;28;20472;-58
2021/03/12 03:58:58;;;;;;;5.50;0.97;;;3.70;99.90;;;;;;4166580;28;20534;-58
2021/03/12 04:01:00;;;;;;;4.40;0.90;;;3.80;99.90;;;;;;4165877;28;20498;-58
2021/03/12 04:03:03;;;;;;;6.27;1.13;;;3.80;99.90;;;;;;4167181;28;20576;-58
2021/03/12 04:05:08;;;;;;;9.13;1.30;;;3.80;99.90;;;;;;4167049;28;20478;-57
2021/03/12 04:07:10;;;;;;;3.67;1.10;;;3.80;99.90;;;;;;4166083;28;20477;-58
2021/03/12 04:09:14;;;;;;;10.43;1.40;;;3.70;99.90;;;;;;4167391;28;20492;-58
2021/03/12 04:11:16;;;;;;;4.20;1.00;;;3.70;99.90;;;;;;4170080;28;20518;-58
2021/03/12 04:13:19;;;;;;;4.13;1.20;;;3.70;99.90;;;;;;4169599;28;20472;-58
2021/03/12 04:15:20;;;;;;;7.00;1.00;;;3.70;99.90;;;;;;4170183;28;21013;-58
2021/03/12 04:17:22;;;;;;;2.73;1.03;;;3.70;99.90;;;;;;4169123;28;20479;-59
2021/03/12 04:19:23;;;;;;;4.37;0.90;;;3.70;99.90;;;;;;4169270;28;20476;-57
2021/03/12 04:21:26;;;;;;;8.60;1.50;;;3.70;99.90;;;;;;4170089;28;20488;-57
2021/03/12 04:23:28;;;;;;;3.57;0.90;;;3.80;99.90;;;;;;4169428;28;20473;-57
2021/03/12 04:25:29;;;;;;;2.37;1.07;;;3.80;99.90;;;;;;4168117;28;20500;-58
2021/03/12 04:27:31;;;;;;;3.70;0.80;;;3.80;99.90;;;;;;4170073;28;20489;-58
2021/03/12 04:29:33;;;;;;;3.43;1.53;;;3.80;99.90;;;;;;4171011;28;20473;-58
2021/03/12 04:31:34;;;;;;;6.00;1.13;;;3.80;99.90;;;;;;4169810;28;20468;-58
2021/03/12 04:33:36;;;;;;;4.07;0.77;;;3.90;99.90;;;;;;4170293;28;20487;-59
2021/03/12 04:35:38;;;;;;;8.80;1.30;;;3.80;99.90;;;;;;4168954;28;20490;-58
2021/03/12 04:37:41;;;;;;;6.97;0.90;;;3.80;99.90;;;;;;4171142;28;20502;-61
2021/03/12 04:39:43;;;;;;;6.70;1.10;;;3.80;99.90;;;;;;4169153;28;20465;-59
2021/03/12 04:41:45;;;;;;;8.13;1.20;;;3.80;99.90;;;;;;4170471;28;20474;-59
2021/03/12 04:43:46;;;;;;;6.63;1.50;;;3.80;99.90;;;;;;4169227;28;20546;-59
2021/03/12 04:45:48;;;;;;;5.93;1.50;;;3.80;99.90;;;;;;4170608;28;20475;-59
2021/03/12 04:47:50;;;;;;;9.30;1.13;;;3.90;99.90;;;;;;4168887;28;20473;-59
2021/03/12 04:49:52;;;;;;;6.30;1.40;;;4.00;99.90;;;;;;4170684;28;20508;-59
2021/03/12 04:51:54;;;;;;;10.30;0.97;;;4.00;99.90;;;;;;4170555;28;21031;-59
2021/03/12 04:53:56;;;;;;;4.93;1.17;;;4.00;99.90;;;;;;4169694;28;20502;-59
2021/03/12 04:55:59;;;;;;;8.37;1.00;;;4.00;99.90;;;;;;4169428;28;20476;-59
2021/03/12 04:58:01;;;;;;;8.47;1.17;;;4.00;99.90;;;;;;4168875;28;20476;-58
2021/03/12 05:00:04;;;;;;;5.57;1.00;;;4.00;99.90;;;;;;4169225;28;20591;-59
2021/03/12 05:02:06;;;;;;;5.70;1.33;;;4.00;99.90;;;;;;4169584;28;20496;-58
2021/03/12 05:04:08;;;;;;;7.60;1.20;;;4.00;99.90;;;;;;4169259;28;20491;-58
2021/03/12 05:06:11;;;;;;;6.70;1.33;;;4.10;99.90;;;;;;4170026;28;20477;-59
2021/03/12 05:08:13;;;;;;;5.03;1.00;;;4.10;99.90;;;;;;4170221;28;20892;-59
2021/03/12 05:10:16;;;;;;;5.27;1.00;;;4.00;99.90;;;;;;4169571;28;20479;-58
2021/03/12 05:12:17;;;;;;;5.97;1.40;;;4.10;99.90;;;;;;4170267;28;20954;-59
2021/03/12 05:14:20;;;;;;;2.97;1.10;;;4.00;99.90;;;;;;4168580;28;20473;-58
2021/03/12 05:16:21;;;;;;;5.03;1.27;;;4.00;99.90;;;;;;4169490;28;20471;-59
2021/03/12 05:18:23;;;;;;;5.67;1.37;;;4.10;99.90;;;;;;4167964;28;20535;-58
2021/03/12 05:20:25;;;;;;;4.67;1.10;;;4.10;99.90;;;;;;4167542;28;20484;-59
2021/03/12 05:22:26;;;;;;;7.63;1.40;;;4.10;99.90;;;;;;4167665;28;20533;-59
2021/03/12 05:24:27;;;;;;;3.67;0.73;;;4.10;99.90;;;;;;4168300;28;20501;-58
2021/03/12 05:26:30;;;;;;;4.40;1.00;;;4.10;99.90;;;;;;4169481;28;21039;-58
2021/03/12 05:28:31;;;;;;;9.67;1.20;;;4.10;99.90;;;;;;4168388;28;20492;-59
2021/03/12 05:30:32;;;;;;;6.07;1.37;;;4.10;99.90;;;;;;4169796;28;20868;-58
2021/03/12 05:32:34;;;;;;;8.40;1.10;;;4.10;99.90;;;;;;4169298;28;20480;-59
2021/03/12 05:34:35;;;;;;;3.43;0.93;;;4.20;99.90;;;;;;4168807;28;20557;-59
2021/03/12 05:36:38;;;;;;;5.23;1.00;;;4.20;99.90;;;;;;4169005;28;20501;-59
2021/03/12 05:38:39;;;;;;;9.43;1.27;;;4.20;99.90;;;;;;4169656;28;20501;-59
2021/03/12 05:40:41;;;;;;;4.43;0.80;;;4.20;99.90;;;;;;4168471;28;20504;-59
2021/03/12 05:42:44;;;;;;;2.13;0.80;;;4.30;99.90;;;;;;4169709;28;20486;-57
2021/03/12 05:44:47;;;;;;;5.17;1.20;;;4.30;99.90;;;;;;4169426;28;20484;-58
2021/03/12 05:46:49;;;;;;;7.97;1.10;;;4.30;99.90;;;;;;4167974;28;22061;-58
2021/03/12 05:48:53;;;;;;;8.70;1.10;;;4.40;99.90;;;;;;4168183;28;20488;-58
2021/03/12 05:50:58;;;;;;;2.97;1.10;;;4.40;99.90;;;;;;4168024;28;21138;-58
2021/03/12 05:53:00;;;;;;;6.13;1.30;;;4.40;99.90;;;;;;4168586;28;20472;-58
2021/03/12 05:55:02;;;;;;;4.67;1.30;;;4.40;99.90;;;;;;4168563;28;20501;-58
2021/03/12 05:57:04;;;;;;;7.43;1.50;;;4.40;99.90;;;;;;4168875;28;20466;-58
2021/03/12 05:59:06;;;;;;;5.33;1.00;;;4.50;99.90;;;;;;4168681;28;20481;-58
2021/03/12 06:01:07;;;;;;;9.53;1.00;;;4.50;99.90;;;;;;4168764;28;20519;-59
2021/03/12 06:03:08;;;;;;;4.83;0.80;;;4.50;99.90;;;;;;4169276;28;20887;-58
2021/03/12 06:05:11;;;;;;;3.50;0.93;;;4.50;99.90;;;;;;4167994;28;20469;-58
2021/03/12 06:07:13;;;;;;;5.30;1.17;;;4.60;99.90;;;;;;4168893;28;20500;-58
2021/03/12 06:09:15;;;;;;;5.40;1.00;;;4.60;99.90;;;;;;4168922;28;20491;-58
2021/03/12 06:11:16;;;;;;;5.17;1.00;;;4.60;99.90;;;;;;4168784;28;20456;-58
2021/03/12 06:13:17;;;;;;;4.93;1.00;;;4.60;99.90;;;;;;4169224;28;20496;-58
2021/03/12 06:15:31;;;;;;;4.00;0.80;;;4.70;99.90;;;;;;4168761;28;22414;-58
2021/03/12 06:17:38;;;;;;;3.40;1.03;;;4.70;99.90;;;;;;4167781;28;20469;-58
2021/03/12 06:19:39;;;;;;;3.30;0.90;;;4.70;99.90;;;;;;4167888;28;20973;-58
2021/03/12 06:21:41;;;;;;;9.00;1.27;;;4.70;99.90;;;;;;4167123;28;20485;-59
2021/03/12 06:23:45;;;;;;;6.73;1.00;;;4.80;99.90;;;;;;4166938;28;20555;-60
2021/03/12 06:25:53;;;;;;;5.57;1.10;;;4.80;99.90;;;;;;4166131;28;20491;-59
2021/03/12 06:27:56;;;;;;;6.30;1.20;;;4.80;99.90;;;;;;4167211;28;20473;-59
2021/03/12 06:29:59;;;;;;;5.20;1.13;;;4.90;99.90;;;;;;4167640;28;20469;-59
2021/03/12 06:32:02;;;;;;;6.20;1.13;;;4.90;99.90;;;;;;4167007;28;20488;-58
2021/03/12 06:34:10;;;;;;;3.97;1.10;;;4.90;99.90;;;;;;4168694;28;20468;-61
2021/03/12 06:36:28;;;;;;;5.17;1.23;;;5.00;99.90;;;;;;4167428;28;20496;-59
2021/03/12 06:38:30;;;;;;;8.40;1.37;;;5.00;99.90;;;;;;4166350;28;20468;-61
2021/03/12 06:40:32;;;;;;;5.33;1.00;;;5.00;99.90;;;;;;4166955;28;20497;-59
2021/03/12 06:42:33;;;;;;;4.80;1.10;;;5.10;99.90;;;;;;4168113;28;20557;-57
2021/03/12 06:44:36;;;;;;;5.13;1.20;;;5.10;99.90;;;;;;4166633;28;20466;-57
2021/03/12 06:46:45;;;;;;;5.40;1.30;;;5.20;99.90;;;;;;4161310;28;21092;-59
2021/03/12 06:49:00;;;;;;;6.03;1.17;;;5.20;99.90;;;;;;4163211;28;20477;-59
2021/03/12 06:51:05;;;;;;;4.43;0.80;;;5.30;99.90;;;;;;4163467;28;21223;-58
2021/03/12 06:53:21;;;;;;;8.50;1.40;;;5.30;99.90;;;;;;4164336;28;20596;-58
2021/03/12 06:55:23;;;;;;;5.63;1.00;;;5.30;99.90;;;;;;4163963;28;20533;-58
2021/03/12 06:57:24;;;;;;;5.73;1.10;;;5.30;99.90;;;;;;4161907;28;20485;-58
2021/03/12 06:59:30;;;;;;;5.93;1.07;;;5.40;99.90;;;;;;4161441;28;20623;-59
2021/03/12 07:01:32;;;;;;;7.27;1.10;;;5.40;99.90;;;;;;4163299;28;20504;-60
2021/03/12 07:03:34;;;;;;;3.40;0.90;;;5.40;99.90;;;;;;4161544;28;20469;-61
2021/03/12 07:05:54;;;;;;;4.93;1.23;;;5.50;99.90;;;;;;4163461;28;20464;-60
2021/03/12 07:07:55;;;;;;;8.47;1.20;;;5.50;99.90;;;;;;4163735;28;20978;-60
2021/03/12 07:09:57;;;;;;;3.33;0.80;;;5.60;99.90;;;;;;4162960;28;20473;-58
2021/03/12 07:12:00;;;;;;;3.37;0.97;;;5.60;99.90;;;;;;4163444;28;20556;-60
2021/03/12 07:14:02;;;;;;;6.97;1.10;;;5.70;99.90;;;;;;4164629;28;20488;-57
2021/03/12 07:16:05;;;;;;;4.50;0.90;;;5.80;99.90;;;;;;4163637;28;20986;-58
2021/03/12 07:18:06;;;;;;;8.83;2.40;;;5.90;99.90;;;;;;4163696;28;20470;-60
2021/03/12 07:20:10;;;;;;;3.63;1.27;;;5.90;99.90;;;;;;4163753;28;20468;-58
2021/03/12 07:22:14;;;;;;;6.13;1.00;;;6.00;99.90;;;;;;4163218;28;20507;-58
2021/03/12 07:24:20;;;;;;;6.07;1.03;;;6.10;99.90;;;;;;4163560;28;20469;-57
2021/03/12 07:26:21;;;;;;;8.10;1.10;;;6.20;99.90;;;;;;4164723;28;20498;-58
2021/03/12 07:28:26;;;;;;;7.70;1.33;;;6.30;99.90;;;;;;4163463;28;20490;-57
2021/03/12 07:30:37;;;;;;;4.72;0.90;;;6.40;99.90;;;;;;4165213;28;22605;-57
2021/03/12 07:32:40;;;;;;;5.32;1.50;;;6.50;99.90;;;;;;4163503;28;20537;-58
2021/03/12 07:34:42;;;;;;;5.57;1.33;;;6.70;99.90;;;;;;4162142;28;20873;-58
2021/03/12 07:36:46;;;;;;;3.33;1.00;;;6.80;99.90;;;;;;4160647;28;20221;-58
2021/03/12 07:38:50;;;;;;;8.15;1.60;;;6.80;99.90;;;;;;4161149;28;20461;-56
2021/03/12 07:40:53;;;;;;;4.43;1.80;;;6.90;99.90;;;;;;4159848;28;20256;-56
2021/03/12 07:42:55;;;;;;;3.80;1.07;;;6.90;99.90;;;;;;4161649;28;20476;-56
2021/03/12 07:44:57;;;;;;;6.20;1.47;;;6.80;99.90;;;;;;4162308;28;20469;-56
2021/03/12 07:46:59;;;;;;;5.78;1.42;;;6.80;99.90;;;;;;4162579;28;20460;-57
2021/03/12 07:49:01;;;;;;;4.95;1.63;;;6.90;99.90;;;;;;4160630;28;20455;-57
2021/03/12 07:51:10;;;;;;;6.40;1.73;;;7.00;99.90;;;;;;4160899;28;20207;-56
2021/03/12 07:53:11;;;;;;;6.30;1.93;;;7.00;99.90;;;;;;4162969;28;20535;-57
2021/03/12 07:55:14;;;;;;;6.23;1.50;;;7.00;99.90;;;;;;4163462;28;20907;-56
2021/03/12 07:57:16;;;;;;;7.03;1.70;;;7.10;99.90;;;;;;4163795;28;20564;-57
2021/03/12 07:59:18;;;;;;;5.27;1.00;;;7.10;99.90;;;;;;4164096;28;20834;-59
2021/03/12 08:01:20;;;;;;;5.63;1.17;;;7.10;99.90;;;;;;4162466;28;20594;-57
2021/03/12 08:03:28;;;;;;;6.00;1.42;;;7.10;99.90;;;;;;4161335;28;20463;-56
2021/03/12 08:05:36;;;;;;;5.80;1.20;;;7.20;99.90;;;;;;4162929;28;20261;-56
2021/03/12 08:07:37;;;;;;;9.07;1.47;;;7.20;99.90;;;;;;4161235;28;20470;-57
2021/03/12 08:09:38;;;;;;;4.33;1.10;;;7.30;99.90;;;;;;4160853;28;20569;-56
2021/03/12 08:11:52;;;;;;;4.40;1.27;;;7.40;99.90;;;;;;4161782;28;20455;-56
2021/03/12 08:13:54;;;;;;;5.77;1.33;;;7.70;99.90;;;;;;4162891;28;20244;-57
2021/03/12 08:16:06;;;;;;;4.10;1.40;;;7.80;99.90;;;;;;4160512;28;20479;-57
2021/03/12 08:18:25;;;;;;;5.63;1.43;;;8.00;99.90;;;;;;4163731;28;20205;-57
2021/03/12 08:20:29;;;;;;;3.38;1.40;;;8.10;99.90;;;;;;4159103;28;20554;-56
2021/03/12 08:22:44;;;;;;;3.75;1.50;;;8.30;99.90;;;;;;4158423;28;20549;-57
2021/03/12 08:24:47;;;;;;;4.35;1.30;;;8.50;99.90;;;;;;4160304;28;20906;-57
2021/03/12 08:26:52;;;;;;;3.67;1.53;;;8.50;99.50;;;;;;4160333;28;21000;-56
2021/03/12 08:28:53;;;;;;;7.25;1.27;;;8.50;99.50;;;;;;4169916;28;20992;-57
2021/03/12 08:30:55;;;;;;;6.85;1.50;;;8.60;99.00;;;;;;4159531;28;20544;-56
2021/03/12 08:32:58;;;;;;;4.00;1.27;;;8.80;98.00;;;;;;4158887;28;20559;-57
2021/03/12 08:34:59;;;;;;;4.07;1.30;;;8.90;96.10;;;;;;4160814;28;20225;-57
2021/03/12 08:37:27;;;;;;;6.27;1.77;;;8.80;96.10;;;;;;4159207;28;20628;-59
2021/03/12 08:39:29;;;;;;;4.82;1.50;;;8.60;96.00;;;;;;4160759;28;20987;-58
2021/03/12 08:41:40;;;;;;;5.23;1.00;;;8.50;95.40;;;;;;4162752;28;20237;-57
2021/03/12 08:43:46;;;;;;;10.50;1.33;;;8.30;96.00;;;;;;4163727;28;20939;-56
2021/03/12 08:45:49;;;;;;;5.10;1.40;;;8.30;96.40;;;;;;4162210;28;20466;-56
2021/03/12 08:47:50;;;;;;;3.53;1.20;;;8.30;95.70;;;;;;4162261;28;21031;-56
2021/03/12 08:49:52;;;;;;;4.57;1.53;;;8.20;95.40;;;;;;4163192;28;20253;-56
2021/03/12 08:51:53;;;;;;;2.43;1.10;;;8.10;94.70;;;;;;4161813;28;20469;-55
2021/03/12 08:53:57;;;;;;;4.13;0.93;;;8.00;94.20;;;;;;4160220;28;20480;-56
2021/03/12 08:56:00;;;;;;;2.50;0.87;;;8.00;94.90;;;;;;4161706;28;20465;-56
2021/03/12 08:58:12;;;;;;;86.60;33.17;;;7.90;94.60;;;;;;4162745;28;20921;-56
2021/03/12 09:00:15;;;;;;;5.87;1.67;;;7.90;95.10;;;;;;4167168;28;20476;-56
2021/03/12 09:02:24;;;;;;;4.63;1.50;;;7.80;94.70;;;;;;4166642;28;20471;-56
2021/03/12 09:04:30;;;;;;;4.32;1.20;;;7.80;94.80;;;;;;4162812;28;20448;-56
2021/03/12 09:06:33;;;;;;;3.27;1.17;;;7.90;95.60;;;;;;4163760;28;20240;-56
2021/03/12 09:08:36;;;;;;;4.10;1.10;;;7.90;95.70;;;;;;4164525;28;20476;-56
2021/03/12 09:10:37;;;;;;;6.97;1.25;;;8.00;95.80;;;;;;4165458;28;20456;-56
2021/03/12 09:12:38;;;;;;;5.93;1.17;;;8.20;94.30;;;;;;4163420;28;20984;-56
2021/03/12 09:14:40;;;;;;;5.47;1.50;;;8.40;93.80;;;;;;4163759;28;20463;-56
2021/03/12 09:16:42;;;;;;;3.77;0.93;;;8.50;93.50;;;;;;4163927;28;21018;-58
2021/03/12 09:18:45;;;;;;;7.60;1.52;;;8.60;92.90;;;;;;4163967;28;20358;-56
2021/03/12 09:20:50;;;;;;;4.70;1.50;;;8.70;92.70;;;;;;4164024;28;22286;-56
2021/03/12 09:22:53;;;;;;;6.93;3.15;;;8.80;92.60;;;;;;4164915;28;20944;-57
2021/03/12 09:24:54;;;;;;;8.20;2.40;;;9.00;92.40;;;;;;4164531;28;20223;-57
2021/03/12 09:26:56;;;;;;;8.07;2.67;;;9.00;92.30;;;;;;4164960;28;20480;-57
2021/03/12 09:28:59;;;;;;;4.23;2.00;;;9.10;91.20;;;;;;4165004;28;20618;-56
2021/03/12 09:31:04;;;;;;;7.53;1.80;;;9.10;91.10;;;;;;4163894;28;20211;-56
2021/03/12 09:33:08;;;;;;;9.13;2.30;;;9.20;90.60;;;;;;4165220;28;20627;-55
2021/03/12 09:35:17;;;;;;;27.37;9.53;;;9.20;89.20;;;;;;4163306;28;20313;-55
2021/03/12 09:37:19;;;;;;;22.77;8.20;;;9.20;89.40;;;;;;4164670;28;20318;-56
2021/03/12 09:39:22;;;;;;;12.30;4.70;;;9.20;88.70;;;;;;4165502;28;20218;-56
2021/03/12 09:41:25;;;;;;;13.37;4.80;;;9.30;90.00;;;;;;4163593;28;20492;-56
2021/03/12 09:43:26;;;;;;;9.70;2.60;;;9.30;89.10;;;;;;4163326;28;20215;-56
2021/03/12 09:45:28;;;;;;;12.70;4.37;;;9.40;87.20;;;;;;4163078;28;20257;-55
2021/03/12 09:47:31;;;;;;;17.88;7.00;;;9.40;89.80;;;;;;4161006;28;20454;-55
2021/03/12 09:49:36;;;;;;;9.00;2.45;;;9.60;90.00;;;;;;4160872;28;20457;-55
2021/03/12 09:51:39;;;;;;;6.95;1.92;;;9.70;88.00;;;;;;4162054;28;20452;-55
2021/03/12 09:53:42;;;;;;;5.37;1.70;;;9.80;89.30;;;;;;4163892;28;20214;-54
2021/03/12 09:55:44;;;;;;;3.67;1.20;;;9.80;89.20;;;;;;4163839;28;20570;-55
2021/03/12 09:57:46;;;;;;;3.73;1.40;;;9.80;88.70;;;;;;4164240;28;20215;-55
2021/03/12 09:59:50;;;;;;;4.80;1.20;;;9.70;88.60;;;;;;4163995;28;20247;-55
2021/03/12 10:01:52;;;;;;;15.32;5.75;;;9.60;89.80;;;;;;4163113;28;20454;-55
2021/03/12 10:03:53;;;;;;;18.23;7.07;;;9.60;90.10;;;;;;4162732;28;20215;-55
2021/03/12 10:06:09;;;;;;;21.17;8.63;;;9.60;90.00;;;;;;4163580;28;20476;-54
2021/03/12 10:08:11;;;;;;;47.47;22.48;;;9.70;90.60;;;;;;4164509;28;20497;-55
2021/03/12 10:10:24;;;;;;;98.50;36.33;;;9.60;91.00;;;;;;4163806;28;20866;-55
2021/03/12 10:12:26;;;;;;;32.40;14.60;;;9.40;90.70;;;;;;4164134;28;20203;-56
2021/03/12 10:14:33;;;;;;;34.43;15.07;;;9.20;91.90;;;;;;4164506;28;20234;-53
2021/03/12 10:16:35;;;;;;;26.03;11.83;;;9.10;92.30;;;;;;4166531;28;20244;-55
2021/03/12 10:18:36;;;;;;;23.80;12.18;;;8.90;92.90;;;;;;4160766;28;20449;-53
2021/03/12 10:20:37;;;;;;;15.70;7.87;;;9.00;93.80;;;;;;4162550;28;20658;-55
2021/03/12 10:22:41;;;;;;;13.30;5.22;;;9.10;93.40;;;;;;4163782;28;20997;-54
2021/03/12 10:24:45;;;;;;;8.52;3.63;;;9.10;92.70;;;;;;4162821;28;20463;-54
2021/03/12 10:26:48;;;;;;;11.98;6.15;;;9.10;91.20;;;;;;4162993;28;20608;-55
2021/03/12 10:28:50;;;;;;;14.30;5.50;;;9.30;90.90;;;;;;4163347;28;20225;-54
2021/03/12 10:30:59;;;;;;;16.20;6.40;;;9.40;91.20;;;;;;4162754;28;20709;-55
2021/03/12 10:33:02;;;;;;;27.63;13.37;;;9.30;87.50;;;;;;4163178;28;20220;-55
2021/03/12 10:35:25;;;;;;;36.53;15.20;;;9.30;88.50;;;;;;4162696;28;20214;-55
2021/03/12 10:37:32;;;;;;;65.95;29.88;;;9.50;89.50;;;;;;4161907;28;20512;-56
2021/03/12 10:39:42;;;;;;;47.77;19.63;;;9.70;87.30;;;;;;4165053;28;20244;-56
2021/03/12 10:41:43;;;;;;;86.17;43.63;;;9.90;85.40;;;;;;4162134;28;20610;-55
2021/03/12 10:43:56;;;;;;;21.73;9.95;;;10.20;82.70;;;;;;4159417;28;20457;-58
2021/03/12 10:46:00;;;;;;;13.30;5.57;;;10.40;78.40;;;;;;4162509;28;20242;-55
2021/03/12 10:48:04;;;;;;;20.13;8.30;;;10.30;75.10;;;;;;4164502;28;20214;-54
2021/03/12 10:50:19;;;;;;;15.37;6.13;;;10.30;76.40;;;;;;4163468;28;20214;-53